Time;durP1;ratioP1;P1;durP2;ratioP2;P2;SDS_P1;SDS_P2;PMS_P1;PMS_P2;Temp;Humidity;BMP_temperature;BMP_pressure;BME280_temperature;BME280_humidity;BME280_pressure;Samples;Min_cycle;Max_cycle;Signal;HPM_P1;HPM_P2
2022/04/09 00:00:16;;;;;;;;;;;19.60;50.90;;;;;;5067187;28;44325;-83
2022/04/09 00:02:42;;;;;;;;;;;19.60;50.90;;;;;;5067692;28;43040;-82
2022/04/09 00:05:09;;;;;;;;;;;19.60;50.90;;;;;;5067535;28;43125;-82
2022/04/09 00:07:35;;;;;;;;;;;19.60;51.00;;;;;;5067336;28;42954;-82
2022/04/09 00:10:00;;;;;;;;;;;19.60;51.00;;;;;;5067268;28;43937;-82
2022/04/09 00:12:26;;;;;;;;;;;19.60;51.00;;;;;;5067080;28;43029;-82
2022/04/09 00:14:51;;;;;;;;;;;19.60;51.00;;;;;;5067261;28;43600;-82
2022/04/09 00:17:17;;;;;;;;;;;19.60;51.00;;;;;;5067038;28;43192;-82
2022/04/09 00:19:43;;;;;;;;;;;19.60;51.00;;;;;;5067016;28;42875;-83
2022/04/09 00:22:10;;;;;;;;;;;19.60;51.00;;;;;;5066186;28;42938;-83
2022/04/09 00:24:36;;;;;;;;;;;19.60;51.00;;;;;;5066764;28;42938;-82
2022/04/09 00:27:02;;;;;;;;;;;19.60;51.00;;;;;;5067062;28;42911;-82
2022/04/09 00:29:27;;;;;;;;;;;19.90;51.20;;;;;;5066629;28;43073;-82
2022/04/09 00:31:53;;;;;;;;;;;19.60;51.10;;;;;;5065742;28;43082;-83
2022/04/09 00:34:18;;;;;;;;;;;19.60;51.10;;;;;;5067539;28;43534;-83
2022/04/09 00:36:44;;;;;;;;;;;19.60;51.10;;;;;;5067325;28;42965;-84
2022/04/09 00:39:09;;;;;;;;;;;19.70;51.10;;;;;;5067086;28;43021;-84
2022/04/09 00:41:35;;;;;;;;;;;19.60;51.10;;;;;;5067413;28;42895;-83
2022/04/09 00:44:00;;;;;;;;;;;19.60;51.10;;;;;;5066483;28;43405;-84
2022/04/09 00:46:26;;;;;;;;;;;19.60;51.10;;;;;;5066920;28;43085;-84
2022/04/09 00:48:51;;;;;;;;;;;19.60;51.10;;;;;;5066372;28;43927;-84
2022/04/09 00:51:18;;;;;;;;;;;19.80;51.30;;;;;;5066639;28;43013;-84
2022/04/09 00:53:46;;;;;;;;;;;19.60;51.10;;;;;;5066444;28;44954;-83
2022/04/09 00:56:16;;;;;;;;;;;19.60;51.10;;;;;;5066580;28;42928;-84
2022/04/09 00:58:51;;;;;;;;;;;19.60;51.20;;;;;;5066665;28;43533;-84
2022/04/09 01:01:18;;;;;;;;;;;19.60;51.20;;;;;;5066705;28;42958;-85
2022/04/09 01:03:44;;;;;;;;;;;19.60;51.20;;;;;;5066390;28;43054;-84
2022/04/09 01:06:11;;;;;;;;;;;19.60;51.20;;;;;;5066399;28;42990;-83
2022/04/09 01:08:37;;;;;;;;;;;19.60;51.20;;;;;;5066556;28;43977;-84
2022/04/09 01:11:02;;;;;;;;;;;19.60;51.20;;;;;;5066908;28;42882;-83
2022/04/09 01:13:28;;;;;;;;;;;19.60;51.20;;;;;;5066534;28;42905;-84
2022/04/09 01:15:54;;;;;;;;;;;19.60;51.30;;;;;;5066936;28;43267;-84
2022/04/09 01:18:20;;;;;;;;;;;19.60;51.30;;;;;;5066552;28;42883;-84
2022/04/09 01:20:45;;;;;;;;;;;19.60;51.30;;;;;;5064536;28;43143;-83
2022/04/09 01:23:11;;;;;;;;;;;19.60;51.30;;;;;;5066845;28;43542;-84
2022/04/09 01:25:37;;;;;;;;;;;19.60;51.30;;;;;;5066640;28;42925;-83
2022/04/09 01:28:04;;;;;;;;;;;19.70;51.40;;;;;;5065873;28;43648;-83
2022/04/09 01:30:29;;;;;;;;;;;19.60;51.40;;;;;;5066934;28;42898;-83
2022/04/09 01:32:55;;;;;;;;;;;19.60;51.40;;;;;;5066516;28;43381;-83
2022/04/09 01:35:21;;;;;;;;;;;19.70;51.40;;;;;;5067142;28;43105;-83
2022/04/09 01:37:46;;;;;;;;;;;19.60;51.40;;;;;;5066532;28;43050;-82
2022/04/09 01:40:12;;;;;;;;;;;19.60;51.40;;;;;;5065353;27;42909;-84
2022/04/09 01:42:38;;;;;;;;;;;19.70;51.50;;;;;;5062625;27;43190;-83
2022/04/09 01:45:05;;;;;;;;;;;19.60;51.40;;;;;;5066163;28;42960;-83
2022/04/09 01:47:30;;;;;;;;;;;19.70;51.50;;;;;;5065895;28;43475;-83
2022/04/09 01:49:56;;;;;;;;;;;19.70;51.50;;;;;;5067665;28;42847;-84
2022/04/09 01:52:21;;;;;;;;;;;19.70;51.50;;;;;;5069003;28;43657;-83
2022/04/09 01:54:47;;;;;;;;;;;19.70;51.50;;;;;;5069705;28;42961;-83
2022/04/09 01:57:13;;;;;;;;;;;19.60;51.50;;;;;;5069961;28;44234;-84
2022/04/09 01:59:41;;;;;;;;;;;19.70;51.50;;;;;;5069344;28;42868;-83
2022/04/09 02:02:08;;;;;;;;;;;19.70;51.50;;;;;;5084602;28;43660;-84
2022/04/09 02:04:33;;;;;;;;;;;19.70;51.60;;;;;;5069084;28;42971;-83
2022/04/09 02:06:59;;;;;;;;;;;19.70;51.60;;;;;;5069160;28;42958;-83
2022/04/09 02:09:24;;;;;;;;;;;19.70;51.60;;;;;;5068983;28;43070;-83
2022/04/09 02:11:50;;;;;;;;;;;19.70;51.60;;;;;;5068958;28;43589;-83
2022/04/09 02:14:15;;;;;;;;;;;19.70;51.60;;;;;;5069937;28;42961;-83
2022/04/09 02:16:41;;;;;;;;;;;19.70;51.60;;;;;;5069734;28;42772;-83
2022/04/09 02:19:08;;;;;;;;;;;19.70;51.60;;;;;;5070059;28;42997;-83
2022/04/09 02:21:34;;;;;;;;;;;19.70;51.70;;;;;;5068462;28;44401;-83
2022/04/09 02:23:59;;;;;;;;;;;19.70;51.70;;;;;;5070364;28;43014;-83
2022/04/09 02:26:25;;;;;;;;;;;19.70;51.70;;;;;;5069646;28;42929;-83
2022/04/09 02:28:52;;;;;;;;;;;19.70;51.70;;;;;;5069448;28;43643;-83
2022/04/09 02:31:18;;;;;;;;;;;19.70;51.70;;;;;;5069251;28;43526;-84
2022/04/09 02:33:44;;;;;;;;;;;19.70;51.70;;;;;;5069429;28;42933;-83
2022/04/09 02:36:12;;;;;;;;;;;19.70;51.70;;;;;;5089187;28;44022;-82
2022/04/09 02:38:40;;;;;;;;;;;19.70;51.80;;;;;;5093152;28;42919;-83
2022/04/09 02:41:06;;;;;;;;;;;19.70;51.80;;;;;;5087498;28;42795;-82
2022/04/09 02:43:32;;;;;;;;;;;19.70;51.80;;;;;;5082578;28;42644;-82
2022/04/09 02:45:57;;;;;;;;;;;19.70;51.80;;;;;;5074713;28;42913;-82
2022/04/09 02:48:23;;;;;;;;;;;19.70;51.80;;;;;;5069661;28;43001;-82
2022/04/09 02:50:49;;;;;;;;;;;19.70;51.80;;;;;;5068745;28;43521;-82
2022/04/09 02:53:14;;;;;;;;;;;19.70;51.90;;;;;;5068196;28;42828;-82
2022/04/09 02:55:40;;;;;;;;;;;19.70;51.80;;;;;;5068426;28;42899;-82
2022/04/09 02:58:06;;;;;;;;;;;19.70;51.90;;;;;;5068017;28;42812;-82
2022/04/09 03:00:31;;;;;;;;;;;19.70;51.90;;;;;;5066483;28;42970;-82
2022/04/09 03:02:57;;;;;;;;;;;19.70;51.90;;;;;;5068219;28;42884;-83
2022/04/09 03:05:22;;;;;;;;;;;19.70;51.90;;;;;;5066995;28;43490;-83
2022/04/09 03:07:48;;;;;;;;;;;19.70;52.00;;;;;;5083334;28;42927;-83
2022/04/09 03:10:13;;;;;;;;;;;19.70;52.00;;;;;;5068493;28;42795;-82
2022/04/09 03:12:43;;;;;;;;;;;19.70;52.00;;;;;;5068582;28;42898;-82
2022/04/09 03:15:08;;;;;;;;;;;19.70;52.00;;;;;;5066494;28;43720;-82
2022/04/09 03:17:34;;;;;;;;;;;19.70;52.00;;;;;;5067532;28;43008;-82
2022/04/09 03:19:59;;;;;;;;;;;19.70;52.00;;;;;;5067721;28;42845;-82
2022/04/09 03:22:27;;;;;;;;;;;19.70;52.00;;;;;;5067029;28;42972;-82
2022/04/09 03:24:56;;;;;;;;;;;20.00;52.20;;;;;;5068473;28;42881;-81
2022/04/09 03:27:21;;;;;;;;;;;19.70;52.00;;;;;;5068353;28;42918;-81
2022/04/09 03:29:47;;;;;;;;;;;19.70;52.00;;;;;;5082680;28;42894;-82
2022/04/09 03:32:12;;;;;;;;;;;19.70;52.10;;;;;;5067972;28;42960;-82
2022/04/09 03:34:38;;;;;;;;;;;19.70;52.10;;;;;;5067912;28;42879;-82
2022/04/09 03:37:04;;;;;;;;;;;19.70;52.10;;;;;;5083319;28;43160;-82
2022/04/09 03:39:30;;;;;;;;;;;19.70;52.10;;;;;;5067697;28;43366;-82
2022/04/09 03:41:55;;;;;;;;;;;19.70;52.10;;;;;;5067704;28;42937;-82
2022/04/09 03:44:21;;;;;;;;;;;19.70;52.30;;;;;;5083561;28;43623;-82
2022/04/09 03:46:46;;;;;;;;;;;19.70;52.20;;;;;;5068019;28;43012;-82
2022/04/09 03:49:12;;;;;;;;;;;19.70;52.20;;;;;;5081921;27;43300;-84
2022/04/09 03:51:37;;;;;;;;;;;19.70;52.20;;;;;;5086806;28;43038;-83
2022/04/09 03:54:03;;;;;;;;;;;19.70;52.20;;;;;;5086469;28;42893;-84
2022/04/09 03:56:28;;;;;;;;;;;19.70;52.30;;;;;;5089976;27;42908;-84
2022/04/09 03:58:54;;;;;;;;;;;19.70;52.30;;;;;;5096703;27;43076;-84
2022/04/09 04:01:24;;;;;;;;;;;19.70;52.30;;;;;;5096826;27;42956;-84
2022/04/09 04:03:50;;;;;;;;;;;19.70;52.30;;;;;;5096627;27;43778;-83
2022/04/09 04:06:16;;;;;;;;;;;19.70;52.30;;;;;;5096157;27;43209;-83
2022/04/09 04:08:41;;;;;;;;;;;19.80;52.40;;;;;;5095250;27;43598;-83
2022/04/09 04:11:07;;;;;;;;;;;19.70;52.30;;;;;;5096472;27;42976;-83
2022/04/09 04:13:35;;;;;;;;;;;19.70;52.40;;;;;;5091792;27;43934;-80
2022/04/09 04:16:03;;;;;;;;;;;19.70;52.40;;;;;;5098507;27;43468;-82
2022/04/09 04:18:28;;;;;;;;;;;19.70;52.40;;;;;;5095784;27;43020;-80
2022/04/09 04:20:54;;;;;;;;;;;19.70;52.50;;;;;;5095597;27;42948;-81
2022/04/09 04:23:20;;;;;;;;;;;19.70;52.70;;;;;;5096504;27;42869;-86
2022/04/09 04:25:46;;;;;;;;;;;19.70;52.40;;;;;;5093637;27;42983;-83
2022/04/09 04:28:11;;;;;;;;;;;19.80;52.50;;;;;;5095773;27;42894;-80
2022/04/09 04:30:37;;;;;;;;;;;19.70;52.50;;;;;;5096863;27;42832;-80
2022/04/09 04:33:02;;;;;;;;;;;19.70;52.50;;;;;;5094462;27;43309;-79
2022/04/09 04:35:28;;;;;;;;;;;19.70;52.50;;;;;;5103324;27;43050;-80
2022/04/09 04:37:54;;;;;;;;;;;19.70;52.50;;;;;;5098519;27;42986;-80
2022/04/09 04:40:19;;;;;;;;;;;19.70;52.50;;;;;;5094029;27;43041;-82
2022/04/09 04:42:45;;;;;;;;;;;19.70;52.50;;;;;;5073611;28;43290;-81
2022/04/09 04:45:11;;;;;;;;;;;19.70;52.50;;;;;;5064200;28;42898;-81
2022/04/09 04:47:47;;;;;;;;;;;19.70;52.50;;;;;;5064732;28;42907;-81
2022/04/09 04:50:13;;;;;;;;;;;19.70;52.50;;;;;;5064748;28;42970;-80
2022/04/09 04:52:38;;;;;;;;;;;19.70;52.60;;;;;;5065671;28;43366;-80
2022/04/09 04:55:04;;;;;;;;;;;19.80;52.60;;;;;;5099197;27;43153;-81
2022/04/09 04:57:38;;;;;;;;;;;19.80;52.70;;;;;;5107091;27;42971;-80
2022/04/09 05:00:05;;;;;;;;;;;19.70;52.60;;;;;;5106425;27;42995;-85
2022/04/09 05:02:30;;;;;;;;;;;19.80;52.70;;;;;;5104288;27;44608;-87
2022/04/09 05:04:56;;;;;;;;;;;19.70;52.70;;;;;;5106766;27;43270;-88
2022/04/09 05:07:23;;;;;;;;;;;19.70;52.90;;;;;;5105420;27;42921;-88
2022/04/09 05:09:48;;;;;;;;;;;19.80;53.00;;;;;;5105407;27;43012;-87
2022/04/09 05:12:14;;;;;;;;;;;19.70;52.90;;;;;;5107050;27;42910;-88
2022/04/09 05:14:39;;;;;;;;;;;19.70;52.90;;;;;;5106308;27;43126;-88
2022/04/09 05:17:05;;;;;;;;;;;19.70;53.20;;;;;;5106284;27;43789;-86
2022/04/09 05:19:30;;;;;;;;;;;19.70;53.20;;;;;;5106134;27;42941;-86
2022/04/09 05:21:56;;;;;;;;;;;19.90;53.30;;;;;;5106416;27;43619;-87
2022/04/09 05:24:21;;;;;;;;;;;19.80;52.80;;;;;;5128889;27;43140;-86
2022/04/09 05:26:47;;;;;;;;;;;19.70;52.70;;;;;;5131060;27;43581;-86
2022/04/09 05:29:12;;;;;;;;;;;19.70;52.70;;;;;;5127561;27;42350;-88
2022/04/09 05:31:38;;;;;;;;;;;19.80;52.80;;;;;;5113873;27;42845;-88
2022/04/09 05:34:03;;;;;;;;;;;19.80;52.80;;;;;;5107826;27;42770;-85
2022/04/09 05:36:29;;;;;;;;;;;19.80;52.80;;;;;;5107224;27;43499;-87
2022/04/09 05:38:55;;;;;;;;;;;19.70;52.70;;;;;;5106352;27;42836;-88
2022/04/09 05:41:20;;;;;;;;;;;19.80;52.80;;;;;;5106205;27;42790;-88
2022/04/09 05:43:46;;;;;;;;;;;19.70;52.70;;;;;;5106279;27;42826;-86
2022/04/09 05:46:11;;;;;;;;;;;19.80;52.90;;;;;;5106324;27;43690;-86
2022/04/09 05:48:37;;;;;;;;;;;19.80;52.90;;;;;;5105862;27;42874;-87
2022/04/09 05:51:02;;;;;;;;;;;19.70;52.80;;;;;;5105614;27;42986;-87
2022/04/09 05:53:28;;;;;;;;;;;19.80;52.90;;;;;;5105747;27;42955;-86
2022/04/09 05:55:54;;;;;;;;;;;19.80;52.90;;;;;;5105673;27;43488;-87
2022/04/09 05:58:19;;;;;;;;;;;19.80;53.00;;;;;;5105764;27;42910;-86
2022/04/09 06:00:45;;;;;;;;;;;19.80;52.90;;;;;;5085099;27;43570;-86
2022/04/09 06:03:11;;;;;;;;;;;19.70;52.90;;;;;;5083135;28;42987;-86
2022/04/09 06:05:36;;;;;;;;;;;19.80;52.90;;;;;;5068656;28;43040;-85
2022/04/09 06:08:02;;;;;;;;;;;19.80;53.00;;;;;;5075497;28;42918;-86
2022/04/09 06:10:27;;;;;;;;;;;19.80;53.20;;;;;;5084041;27;42978;-85
2022/04/09 06:12:53;;;;;;;;;;;19.70;52.90;;;;;;5084138;28;42882;-84
2022/04/09 06:15:19;;;;;;;;;;;19.70;53.00;;;;;;5084391;28;43559;-86
2022/04/09 06:17:44;;;;;;;;;;;19.70;53.00;;;;;;5085147;27;42873;-86
2022/04/09 06:20:10;;;;;;;;;;;19.70;53.00;;;;;;5084488;27;43384;-86
2022/04/09 06:22:35;;;;;;;;;;;19.70;53.00;;;;;;5085335;28;43076;-86
2022/04/09 06:25:01;;;;;;;;;;;19.70;53.00;;;;;;5082705;28;43942;-87
2022/04/09 06:27:27;;;;;;;;;;;19.80;53.60;;;;;;5086061;28;42938;-86
2022/04/09 06:29:53;;;;;;;;;;;19.70;53.00;;;;;;5083630;28;43826;-86
2022/04/09 06:32:18;;;;;;;;;;;19.70;53.00;;;;;;5074972;28;43030;-87
2022/04/09 06:34:44;;;;;;;;;;;19.80;53.10;;;;;;5063645;28;43824;-85
2022/04/09 06:37:09;;;;;;;;;;;19.80;53.10;;;;;;5067057;28;43020;-82
2022/04/09 06:39:35;;;;;;;;;;;19.80;53.10;;;;;;5066855;28;43655;-80
2022/04/09 06:42:01;;;;;;;;;;;19.80;53.10;;;;;;5067397;28;42983;-86
2022/04/09 06:44:26;;;;;;;;;;;19.80;53.20;;;;;;5067463;28;43605;-87
2022/04/09 06:46:52;;;;;;;;;;;19.80;53.20;;;;;;5073906;28;43192;-83
2022/04/09 06:49:18;;;;;;;;;;;19.80;53.70;;;;;;5087336;27;44245;-84
2022/04/09 06:51:44;;;;;;;;;;;19.70;53.40;;;;;;5085987;27;43049;-84
2022/04/09 06:54:10;;;;;;;;;;;19.80;53.20;;;;;;5087416;27;43523;-84
2022/04/09 06:56:37;;;;;;;;;;;19.80;53.20;;;;;;5087757;27;42939;-78
2022/04/09 06:59:03;;;;;;;;;;;19.70;53.20;;;;;;5079446;27;43479;-75
2022/04/09 07:01:30;;;;;;;;;;;20.10;53.40;;;;;;5084623;28;42827;-75
2022/04/09 07:03:55;;;;;;;;;;;19.80;53.20;;;;;;5085997;28;43089;-74
2022/04/09 07:06:21;;;;;;;;;;;19.80;53.20;;;;;;5086183;28;43074;-75
2022/04/09 07:08:47;;;;;;;;;;;19.80;53.20;;;;;;5086835;28;42967;-75
2022/04/09 07:11:13;;;;;;;;;;;19.70;53.10;;;;;;5070734;27;43056;-74
2022/04/09 07:13:38;;;;;;;;;;;19.80;53.10;;;;;;5080265;27;43611;-79
2022/04/09 07:16:04;;;;;;;;;;;19.70;53.60;;;;;;5084841;28;42987;-77
2022/04/09 07:18:30;;;;;;;;;;;19.70;53.00;;;;;;5088323;28;43106;-78
2022/04/09 07:20:55;;;;;;;;;;;19.70;53.00;;;;;;5087578;28;43773;-78
2022/04/09 07:23:21;;;;;;;;;;;19.70;53.00;;;;;;5087554;28;43050;-78
2022/04/09 07:25:47;;;;;;;;;;;19.70;53.00;;;;;;5088461;28;42908;-78
2022/04/09 07:28:13;;;;;;;;;;;19.70;53.00;;;;;;5088012;28;43298;-78
2022/04/09 07:30:41;;;;;;;;;;;19.70;53.00;;;;;;5088108;28;42998;-78
2022/04/09 07:33:07;;;;;;;;;;;19.70;53.00;;;;;;5088414;28;43009;-78
2022/04/09 07:35:33;;;;;;;;;;;19.70;53.00;;;;;;5088427;28;43043;-78
2022/04/09 07:38:00;;;;;;;;;;;19.70;52.90;;;;;;5088343;28;43552;-78
2022/04/09 07:40:27;;;;;;;;;;;19.70;52.90;;;;;;5087927;28;42985;-78
2022/04/09 07:42:53;;;;;;;;;;;19.70;52.90;;;;;;5087357;28;42882;-78
2022/04/09 07:45:19;;;;;;;;;;;19.70;52.90;;;;;;5086883;27;42906;-77
2022/04/09 07:47:51;;;;;;;;;;;19.70;52.90;;;;;;5086577;28;43222;-77
2022/04/09 07:50:17;;;;;;;;;;;18.20;52.20;;;;;;5087458;28;42830;-78
2022/04/09 07:52:45;;;;;;;;;;;19.70;52.90;;;;;;5087158;28;42859;-78
2022/04/09 07:55:12;;;;;;;;;;;19.70;52.90;;;;;;5087208;28;42937;-78
2022/04/09 07:57:38;;;;;;;;;;;19.70;53.00;;;;;;5086804;28;43048;-78
2022/04/09 08:00:04;;;;;;;;;;;19.70;53.00;;;;;;5087134;28;43081;-77
2022/04/09 08:02:32;;;;;;;;;;;19.70;52.90;;;;;;5085537;27;62321;-79
2022/04/09 08:04:58;;;;;;;;;;;19.60;53.00;;;;;;5086542;28;42941;-78
2022/04/09 08:07:24;;;;;;;;;;;19.70;52.90;;;;;;5086034;28;42790;-78
2022/04/09 08:09:49;;;;;;;;;;;19.60;53.20;;;;;;5087807;28;42965;-79
2022/04/09 08:12:15;;;;;;;;;;;19.70;52.90;;;;;;5089466;28;43733;-78
2022/04/09 08:14:41;;;;;;;;;;;19.70;52.90;;;;;;5088288;28;42817;-78
2022/04/09 08:17:07;;;;;;;;;;;19.70;52.90;;;;;;5086781;28;43882;-78
2022/04/09 08:19:34;;;;;;;;;;;19.70;52.90;;;;;;5086367;28;42950;-78
2022/04/09 08:22:00;;;;;;;;;;;19.70;52.90;;;;;;5086218;28;42976;-78
2022/04/09 08:24:26;;;;;;;;;;;19.70;52.90;;;;;;5086975;27;42948;-81
2022/04/09 08:26:51;;;;;;;;;;;19.70;53.00;;;;;;5087638;28;42966;-79
2022/04/09 08:29:19;;;;;;;;;;;19.70;53.00;;;;;;5087231;28;42992;-79
2022/04/09 08:31:47;;;;;;;;;;;19.70;52.90;;;;;;5085725;28;44043;-77
2022/04/09 08:34:17;;;;;;;;;;;19.70;52.90;;;;;;5087355;28;42977;-78
2022/04/09 08:36:42;;;;;;;;;;;19.70;52.90;;;;;;5086513;28;43645;-77
2022/04/09 08:39:08;;;;;;;;;;;19.70;53.00;;;;;;5087038;28;42887;-77
2022/04/09 08:41:37;;;;;;;;;;;19.70;52.90;;;;;;5087002;28;43590;-77
2022/04/09 08:44:03;;;;;;;;;;;19.70;52.90;;;;;;5086896;28;43034;-77
2022/04/09 08:46:29;;;;;;;;;;;19.70;52.90;;;;;;5086639;28;43671;-78
2022/04/09 08:48:57;;;;;;;;;;;19.70;52.90;;;;;;5086760;28;42944;-78
2022/04/09 08:51:23;;;;;;;;;;;19.70;53.00;;;;;;5086083;28;42937;-78
2022/04/09 08:53:49;;;;;;;;;;;19.70;52.90;;;;;;5086333;28;42906;-79
2022/04/09 08:56:17;;;;;;;;;;;19.70;52.90;;;;;;5086892;28;43447;-78
2022/04/09 08:58:43;;;;;;;;;;;19.70;52.90;;;;;;5083593;28;43018;-78
2022/04/09 09:01:08;;;;;;;;;;;19.70;52.90;;;;;;5085747;28;43309;-78
2022/04/09 09:03:35;;;;;;;;;;;19.70;52.90;;;;;;5085911;28;43246;-77
2022/04/09 09:06:01;;;;;;;;;;;19.70;52.90;;;;;;5086239;28;43407;-78
2022/04/09 09:08:37;;;;;;;;;;;19.70;52.90;;;;;;5086416;28;42960;-78
2022/04/09 09:11:02;;;;;;;;;;;19.70;52.90;;;;;;5085719;28;43032;-78
2022/04/09 09:13:28;;;;;;;;;;;19.70;52.90;;;;;;5086288;28;43218;-77
2022/04/09 09:15:55;;;;;;;;;;;19.70;52.90;;;;;;5086261;28;43444;-77
2022/04/09 09:18:22;;;;;;;;;;;19.70;52.90;;;;;;5086310;28;42932;-77
2022/04/09 09:20:50;;;;;;;;;;;19.70;52.90;;;;;;5085197;28;43504;-78
2022/04/09 09:23:20;;;;;;;;;;;19.70;52.90;;;;;;5085521;28;43008;-76
2022/04/09 09:25:49;;;;;;;;;;;19.70;52.90;;;;;;5085807;28;44374;-77
2022/04/09 09:28:20;;;;;;;;;;;19.70;52.90;;;;;;5086396;28;42801;-77
2022/04/09 09:30:50;;;;;;;;;;;19.70;53.00;;;;;;5085746;28;42955;-79
2022/04/09 09:33:16;;;;;;;;;;;19.70;52.90;;;;;;5086267;28;42802;-78
2022/04/09 09:35:50;;;;;;;;;;;19.70;52.90;;;;;;5086461;28;42855;-77
2022/04/09 09:38:23;;;;;;;;;;;19.70;52.90;;;;;;5086254;27;42755;-77
2022/04/09 09:40:49;;;;;;;;;;;19.70;52.90;;;;;;5086343;28;43297;-77
2022/04/09 09:43:17;;;;;;;;;;;19.70;52.90;;;;;;5086439;28;42732;-79
2022/04/09 09:45:43;;;;;;;;;;;19.70;52.90;;;;;;5085115;28;42948;-76
2022/04/09 09:48:28;;;;;;;;;;;19.70;52.90;;;;;;5085660;28;43005;-78
2022/04/09 09:50:55;;;;;;;;;;;19.70;52.90;;;;;;5085739;28;43348;-77
2022/04/09 09:53:31;;;;;;;;;;;19.70;52.90;;;;;;5084210;28;43002;-78
2022/04/09 09:55:58;;;;;;;;;;;19.70;53.00;;;;;;5084308;28;44577;-78
2022/04/09 09:58:25;;;;;;;;;;;19.70;53.40;;;;;;5085800;28;43053;-77
2022/04/09 10:00:50;;;;;;;;;;;19.70;52.90;;;;;;5083415;28;43702;-77
2022/04/09 10:03:17;;;;;;;;;;;19.70;53.00;;;;;;5085118;28;42867;-78
2022/04/09 10:05:42;;;;;;;;;;;19.70;52.90;;;;;;5083955;28;45238;-78
2022/04/09 10:08:08;;;;;;;;;;;18.50;52.30;;;;;;5085838;28;42976;-77
2022/04/09 10:10:34;;;;;;;;;;;19.70;52.90;;;;;;5086087;28;42904;-77
2022/04/09 10:13:02;;;;;;;;;;;19.70;53.00;;;;;;5088438;28;43109;-81
2022/04/09 10:15:28;;;;;;;;;;;19.80;53.00;;;;;;5087124;28;43088;-82
2022/04/09 10:17:56;;;;;;;;;;;19.70;53.00;;;;;;5076932;28;43130;-79
2022/04/09 10:20:23;;;;;;;;;;;19.70;52.90;;;;;;5088295;28;43644;-78
2022/04/09 10:22:49;;;;;;;;;;;19.70;52.90;;;;;;5087940;28;43116;-75
2022/04/09 10:25:16;;;;;;;;;;;19.70;52.90;;;;;;5087520;28;43438;-75
2022/04/09 10:27:53;;;;;;;;;;;19.70;52.90;;;;;;5086162;28;42981;-76
2022/04/09 10:30:24;;;;;;;;;;;19.70;52.90;;;;;;5087058;28;42941;-75
2022/04/09 10:32:54;;;;;;;;;;;19.70;52.90;;;;;;5086808;28;42809;-75
2022/04/09 10:35:22;;;;;;;;;;;19.70;52.80;;;;;;5087403;28;43337;-74
2022/04/09 10:38:06;;;;;;;;;;;19.70;52.80;;;;;;5086345;28;43022;-75
2022/04/09 10:40:32;;;;;;;;;;;19.70;52.80;;;;;;5087409;28;42855;-77
2022/04/09 10:42:59;;;;;;;;;;;19.70;52.80;;;;;;5087690;28;43151;-78
2022/04/09 10:45:25;;;;;;;;;;;19.70;52.80;;;;;;5088006;27;42851;-79
2022/04/09 10:48:12;;;;;;;;;;;19.70;52.80;;;;;;5086597;28;42937;-78
2022/04/09 10:50:56;;;;;;;;;;;19.70;52.80;;;;;;5088189;28;43544;-78
2022/04/09 10:53:23;;;;;;;;;;;19.70;52.80;;;;;;5088880;27;42984;-78
2022/04/09 10:56:07;;;;;;;;;;;20.20;53.10;;;;;;5085910;28;44700;-77
2022/04/09 10:58:52;;;;;;;;;;;19.70;52.80;;;;;;5088884;28;43068;-78
2022/04/09 11:01:36;;;;;;;;;;;19.70;52.80;;;;;;5090082;28;42907;-76
2022/04/09 11:04:22;;;;;;;;;;;19.70;52.80;;;;;;5085747;28;42987;-74
2022/04/09 11:06:59;;;;;;;;;;;19.70;52.80;;;;;;5085225;28;42923;-78
2022/04/09 11:09:26;;;;;;;;;;;19.70;52.80;;;;;;5084812;28;42992;-76
2022/04/09 11:12:01;;;;;;;;;;;19.70;52.90;;;;;;5086733;28;42967;-76
2022/04/09 11:14:27;;;;;;;;;;;19.70;52.90;;;;;;5086623;27;43060;-77
2022/04/09 11:16:52;;;;;;;;;;;19.80;53.20;;;;;;5084744;28;44498;-77
2022/04/09 11:19:21;;;;;;;;;;;19.70;52.80;;;;;;5087246;27;43256;-75
2022/04/09 11:21:50;;;;;;;;;;;19.70;52.90;;;;;;5099787;27;44525;-78
2022/04/09 11:24:17;;;;;;;;;;;19.70;52.80;;;;;;5086664;28;42968;-78
2022/04/09 11:26:53;;;;;;;;;;;19.70;52.80;;;;;;5085615;27;44857;-77
2022/04/09 11:29:19;;;;;;;;;;;19.70;52.80;;;;;;5085981;27;43036;-78
2022/04/09 11:31:45;;;;;;;;;;;19.70;52.80;;;;;;5087965;28;43547;-78
2022/04/09 11:34:12;;;;;;;;;;;19.70;52.80;;;;;;5093356;27;42871;-78
2022/04/09 11:36:37;;;;;;;;;;;19.70;52.80;;;;;;5095160;27;44395;-76
2022/04/09 11:39:03;;;;;;;;;;;19.70;53.30;;;;;;5090306;27;43040;-76
2022/04/09 11:41:29;;;;;;;;;;;19.70;52.70;;;;;;5089749;27;43006;-76
2022/04/09 11:43:55;;;;;;;;;;;19.70;52.70;;;;;;5089805;27;43033;-80
2022/04/09 11:46:21;;;;;;;;;;;19.70;52.60;;;;;;5096659;27;45220;-79
2022/04/09 11:49:02;;;;;;;;;;;19.70;52.70;;;;;;5087892;27;43153;-80
2022/04/09 11:51:28;;;;;;;;;;;19.70;52.70;;;;;;5083540;27;43811;-79
2022/04/09 11:54:12;;;;;;;;;;;19.70;52.70;;;;;;5088737;27;42945;-82
2022/04/09 11:56:39;;;;;;;;;;;19.70;52.70;;;;;;5078466;27;43258;-83
2022/04/09 11:59:10;;;;;;;;;;;19.70;52.70;;;;;;5085461;27;43118;-82
2022/04/09 12:01:36;;;;;;;;;;;19.70;52.70;;;;;;5076076;27;43088;-83
2022/04/09 12:04:02;;;;;;;;;;;19.70;52.70;;;;;;5086692;27;43536;-82
2022/04/09 12:06:27;;;;;;;;;;;19.70;52.70;;;;;;5088915;27;43346;-82
2022/04/09 12:08:53;;;;;;;;;;;19.70;52.70;;;;;;5087650;27;42949;-82
2022/04/09 12:11:19;;;;;;;;;;;19.70;52.70;;;;;;5090667;27;43633;-82
2022/04/09 12:13:46;;;;;;;;;;;19.70;52.70;;;;;;5089593;27;43095;-82
2022/04/09 12:16:13;;;;;;;;;;;19.70;52.70;;;;;;5088521;27;43009;-82
2022/04/09 12:18:38;;;;;;;;;;;19.70;52.70;;;;;;5084790;27;43136;-81
2022/04/09 12:21:20;;;;;;;;;;;19.70;52.70;;;;;;5086173;27;43140;-81
2022/04/09 12:23:56;;;;;;;;;;;19.70;52.70;;;;;;5081623;27;43541;-81
2022/04/09 12:26:23;;;;;;;;;;;19.70;52.70;;;;;;5081784;28;43046;-82
2022/04/09 12:29:04;;;;;;;;;;;19.70;52.70;;;;;;5080032;28;43101;-82
2022/04/09 12:31:29;;;;;;;;;;;19.70;52.70;;;;;;5082291;27;43161;-83
2022/04/09 12:33:59;;;;;;;;;;;19.70;52.70;;;;;;5080491;27;42960;-83
2022/04/09 12:36:24;;;;;;;;;;;19.70;52.70;;;;;;5088338;27;43486;-83
2022/04/09 12:38:50;;;;;;;;;;;19.70;52.70;;;;;;5079073;27;43310;-82
2022/04/09 12:41:16;;;;;;;;;;;19.70;52.70;;;;;;5068127;28;42934;-83
2022/04/09 12:43:42;;;;;;;;;;;19.70;52.70;;;;;;5077909;27;43322;-82
2022/04/09 12:46:12;;;;;;;;;;;19.70;52.70;;;;;;5078476;28;44723;-83
2022/04/09 12:51:30;;;;;;;;;;;19.70;52.90;;;;;;5079996;27;43619;-83
2022/04/09 12:53:56;;;;;;;;;;;19.70;52.80;;;;;;5078213;27;43042;-83
2022/04/09 12:56:25;;;;;;;;;;;19.70;52.70;;;;;;5067433;28;43234;-83
2022/04/09 12:58:51;;;;;;;;;;;19.70;53.30;;;;;;5075376;28;43011;-83
2022/04/09 13:04:33;;;;;;;;;;;19.70;52.70;;;;;;5009382;28;43191;-83
2022/04/09 13:06:59;;;;;;;;;;;19.80;53.50;;;;;;5011974;28;43214;-83
2022/04/09 13:09:24;;;;;;;;;;;19.40;53.30;;;;;;5078778;28;42980;-84
2022/04/09 13:11:50;;;;;;;;;;;19.70;54.40;;;;;;5076411;28;43659;-82
2022/04/09 13:14:17;;;;;;;;;;;19.70;53.30;;;;;;5070906;28;42937;-85
2022/04/09 13:16:42;;;;;;;;;;;19.70;52.90;;;;;;5071788;27;42918;-83
2022/04/09 13:19:08;;;;;;;;;;;19.70;52.80;;;;;;5077743;28;43079;-85
2022/04/09 13:21:34;;;;;;;;;;;19.70;52.80;;;;;;4986364;27;2552107;-80
2022/04/09 13:24:00;;;;;;;;;;;19.70;52.80;;;;;;5077644;27;43177;-79
2022/04/09 13:26:25;;;;;;;;;;;19.70;52.80;;;;;;5079426;27;44238;-80
2022/04/09 13:28:51;;;;;;;;;;;19.70;52.80;;;;;;5088163;27;43067;-80
2022/04/09 13:31:17;;;;;;;;;;;19.80;52.80;;;;;;5090380;27;43019;-80
2022/04/09 13:33:43;;;;;;;;;;;19.70;52.80;;;;;;5096985;27;43495;-81
2022/04/09 13:36:08;;;;;;;;;;;19.70;52.80;;;;;;5084574;28;43050;-79
2022/04/09 13:38:34;;;;;;;;;;;19.70;52.90;;;;;;5078085;27;43290;-83
2022/04/09 13:41:00;;;;;;;;;;;19.70;52.90;;;;;;5079734;27;43259;-80
2022/04/09 13:43:25;;;;;;;;;;;19.80;52.90;;;;;;5092628;27;43981;-81
2022/04/09 13:45:52;;;;;;;;;;;19.70;52.80;;;;;;5092720;27;44027;-81
2022/04/09 13:48:18;;;;;;;;;;;19.70;52.80;;;;;;5084969;27;43304;-81
2022/04/09 13:50:45;;;;;;;;;;;19.80;52.90;;;;;;5101737;27;45375;-80
2022/04/09 13:53:10;;;;;;;;;;;19.80;52.90;;;;;;5106965;27;43277;-81
2022/04/09 13:55:36;;;;;;;;;;;19.70;52.80;;;;;;5097740;27;42979;-80
2022/04/09 13:58:02;;;;;;;;;;;19.70;53.40;;;;;;5100782;27;43201;-80
2022/04/09 14:00:28;;;;;;;;;;;19.80;52.90;;;;;;5097570;27;44611;-81
2022/04/09 14:02:54;;;;;;;;;;;19.80;52.90;;;;;;5093814;27;43198;-78
2022/04/09 14:05:20;;;;;;;;;;;19.80;53.20;;;;;;5094090;27;44155;-80
2022/04/09 14:07:47;;;;;;;;;;;19.70;52.90;;;;;;5094702;27;43288;-81
2022/04/09 14:10:13;;;;;;;;;;;20.10;53.50;;;;;;5089633;27;43033;-81
2022/04/09 14:12:38;;;;;;;;;;;19.80;52.90;;;;;;5094684;27;42939;-80
2022/04/09 14:15:04;;;;;;;;;;;19.80;52.90;;;;;;5094125;27;43757;-81
2022/04/09 14:17:29;;;;;;;;;;;19.70;52.90;;;;;;5090723;27;43289;-81
2022/04/09 14:19:55;;;;;;;;;;;19.80;52.90;;;;;;5092813;27;43038;-81